createdAt,value
2018-12-20T00:01:16.413Z,43.57
2018-12-20T00:03:50.438Z,35.87
2018-12-20T00:06:25.240Z,28.83
2018-12-20T00:08:59.536Z,37.97
2018-12-20T00:11:33.526Z,33.57
2018-12-20T00:14:08.196Z,32.20
2018-12-20T00:16:42.109Z,33.60
2018-12-20T00:19:17.163Z,30.43
2018-12-20T00:21:51.500Z,31.00
2018-12-20T00:24:25.624Z,32.20
2018-12-20T00:26:59.841Z,31.60
2018-12-20T00:29:33.732Z,32.87
2018-12-20T00:32:08.441Z,32.80
2018-12-20T00:34:42.624Z,32.57
2018-12-20T00:37:16.977Z,31.93
2018-12-20T00:39:51.017Z,31.90
2018-12-20T00:42:25.768Z,33.17
2018-12-20T00:44:59.861Z,31.87
2018-12-20T00:47:34.860Z,31.63
2018-12-20T00:50:09.846Z,30.50
2018-12-20T00:52:43.863Z,33.73
2018-12-20T00:55:18.278Z,33.23
2018-12-20T00:57:52.432Z,36.87
2018-12-20T01:00:27.377Z,30.50
2018-12-20T01:03:02.253Z,32.33
2018-12-20T01:05:36.299Z,32.43
2018-12-20T01:08:10.562Z,31.43
2018-12-20T01:10:45.482Z,31.47
2018-12-20T01:13:19.485Z,30.63
2018-12-20T01:15:53.958Z,31.93
2018-12-20T01:18:28.386Z,30.43
2018-12-20T01:21:02.392Z,30.70
2018-12-20T01:23:36.530Z,30.40
2018-12-20T01:26:11.587Z,29.33
2018-12-20T01:28:46.134Z,30.73
2018-12-20T01:31:20.280Z,27.63
2018-12-20T01:33:54.572Z,28.87
2018-12-20T01:36:28.731Z,29.27
2018-12-20T01:39:03.131Z,27.80
2018-12-20T01:41:38.168Z,24.30
2018-12-20T01:44:12.188Z,29.03
2018-12-20T01:46:46.478Z,24.37
2018-12-20T01:49:20.808Z,25.70
2018-12-20T01:51:54.892Z,28.87
2018-12-20T01:54:29.269Z,28.23
2018-12-20T01:57:04.233Z,26.83
2018-12-20T01:59:38.144Z,25.23
2018-12-20T02:02:12.521Z,26.53
2018-12-20T02:04:46.784Z,26.00
2018-12-20T02:07:21.080Z,26.30
2018-12-20T02:09:55.345Z,25.03
2018-12-20T02:12:29.695Z,24.23
2018-12-20T02:15:04.089Z,25.13
2018-12-20T02:17:38.923Z,24.67
2018-12-20T02:20:13.071Z,23.63
2018-12-20T02:22:47.358Z,25.13
2018-12-20T02:25:21.618Z,22.83
2018-12-20T02:27:55.979Z,25.40
2018-12-20T02:30:30.091Z,23.60
2018-12-20T02:33:04.550Z,23.83
2018-12-20T02:35:38.706Z,22.60
2018-12-20T02:38:13.333Z,22.60
2018-12-20T02:40:47.349Z,22.67
2018-12-20T02:43:21.692Z,22.57
2018-12-20T02:45:55.727Z,23.70
2018-12-20T02:48:30.121Z,24.27
2018-12-20T02:51:08.534Z,24.37
2018-12-20T02:53:46.889Z,22.80
2018-12-20T02:56:21.251Z,23.37
2018-12-20T02:58:55.348Z,26.23
2018-12-20T03:01:29.688Z,22.30
2018-12-20T03:04:04.156Z,24.93
2018-12-20T03:06:42.544Z,24.10
2018-12-20T03:09:17.006Z,25.87
2018-12-20T03:11:51.025Z,26.83
2018-12-20T03:14:25.894Z,25.50
2018-12-20T03:16:59.962Z,24.53
2018-12-20T03:19:34.336Z,24.40
2018-12-20T03:22:08.983Z,23.83
2018-12-20T03:24:43.276Z,22.20
2018-12-20T03:27:17.545Z,23.50
2018-12-20T03:29:51.886Z,25.87
2018-12-20T03:32:26.752Z,24.87
2018-12-20T03:35:00.817Z,24.67
2018-12-20T03:37:35.025Z,22.37
2018-12-20T03:40:09.450Z,24.00
2018-12-20T03:42:44.194Z,23.73
2018-12-20T03:45:18.489Z,25.50
2018-12-20T03:47:52.660Z,24.73
2018-12-20T03:50:27.200Z,24.43
2018-12-20T03:53:02.175Z,22.73
2018-12-20T03:55:40.732Z,24.00
2018-12-20T03:58:14.991Z,22.00
2018-12-20T04:00:49.418Z,22.13
2018-12-20T04:03:23.482Z,24.73
2018-12-20T04:05:57.830Z,24.63
2018-12-20T04:08:32.527Z,22.73
2018-12-20T04:11:07.383Z,22.90
2018-12-20T04:13:41.506Z,23.13
2018-12-20T04:16:16.101Z,25.03
2018-12-20T04:18:50.009Z,21.93
2018-12-20T04:21:24.263Z,22.63
2018-12-20T04:23:58.643Z,23.00
2018-12-20T04:26:32.696Z,25.13
2018-12-20T04:29:07.228Z,26.33
2018-12-20T04:31:41.509Z,22.93
2018-12-20T04:34:15.779Z,25.03
2018-12-20T04:36:49.634Z,24.50
2018-12-20T04:39:24.017Z,24.03
2018-12-20T04:41:58.386Z,24.13
2018-12-20T04:44:33.071Z,26.57
2018-12-20T04:47:07.589Z,24.60
2018-12-20T04:49:41.941Z,24.07
2018-12-20T04:52:16.169Z,25.40
2018-12-20T04:54:50.282Z,25.03
2018-12-20T04:57:24.664Z,25.53
2018-12-20T04:59:59.537Z,25.23
2018-12-20T05:02:33.884Z,26.47
2018-12-20T05:05:08.033Z,28.17
2018-12-20T05:07:42.393Z,30.57
2018-12-20T05:10:16.973Z,28.27
2018-12-20T05:12:51.118Z,28.73
2018-12-20T05:15:25.782Z,28.40
2018-12-20T05:17:59.929Z,28.93
2018-12-20T05:20:34.149Z,29.93
2018-12-20T05:23:09.125Z,32.27
2018-12-20T05:25:43.417Z,32.97
2018-12-20T05:28:17.830Z,32.07
2018-12-20T05:30:52.403Z,30.87
2018-12-20T05:33:27.349Z,29.73
2018-12-20T05:36:01.510Z,29.23
2018-12-20T05:38:36.302Z,30.30
2018-12-20T05:41:11.276Z,32.03
2018-12-20T05:43:46.028Z,33.23
2018-12-20T05:46:20.646Z,29.53
2018-12-20T05:48:54.923Z,32.83
2018-12-20T05:51:29.051Z,31.43
2018-12-20T05:54:03.374Z,29.60
2018-12-20T05:56:37.623Z,29.30
2018-12-20T05:59:11.766Z,30.63
2018-12-20T06:01:45.892Z,28.80
2018-12-20T06:04:20.059Z,27.67
2018-12-20T06:06:54.451Z,30.30
2018-12-20T06:09:28.805Z,29.20
2018-12-20T06:12:03.231Z,29.73
2018-12-20T06:14:37.912Z,28.97
2018-12-20T06:17:12.802Z,29.97
2018-12-20T06:19:46.976Z,29.90
2018-12-20T06:22:21.316Z,27.63
2018-12-20T06:24:55.510Z,30.10
2018-12-20T06:27:29.735Z,28.40
2018-12-20T06:30:04.452Z,30.23
2018-12-20T06:32:38.765Z,29.93
2018-12-20T06:35:12.747Z,28.93
2018-12-20T06:37:47.278Z,27.77
2018-12-20T06:40:21.489Z,28.57
2018-12-20T06:42:55.767Z,28.10
2018-12-20T06:45:30.219Z,26.63
2018-12-20T06:48:04.367Z,29.13
2018-12-20T06:50:38.442Z,28.57
2018-12-20T06:53:12.655Z,24.73
2018-12-20T06:55:47.034Z,26.93
2018-12-20T06:58:21.149Z,26.23
2018-12-20T07:00:55.442Z,27.47
2018-12-20T07:03:29.791Z,27.53
2018-12-20T07:06:04.051Z,29.37
2018-12-20T07:08:36.752Z,28.63
2018-12-20T07:11:10.591Z,43.20
2018-12-20T07:13:44.989Z,44.13
2018-12-20T07:16:19.434Z,40.70
2018-12-20T07:18:53.973Z,27.87
2018-12-20T07:21:28.396Z,27.27
2018-12-20T07:24:02.714Z,25.60
2018-12-20T07:26:37.726Z,28.03
2018-12-20T07:29:11.628Z,28.57
2018-12-20T07:31:46.037Z,28.93
2018-12-20T07:34:20.478Z,28.03
2018-12-20T07:36:54.769Z,24.83
2018-12-20T07:39:30.321Z,23.47
2018-12-20T07:42:04.317Z,24.47
2018-12-20T07:44:38.731Z,24.70
2018-12-20T07:47:12.575Z,23.17
2018-12-20T07:49:46.869Z,25.73
2018-12-20T07:52:21.025Z,27.23
2018-12-20T07:54:55.215Z,25.57
2018-12-20T07:57:29.479Z,25.67
2018-12-20T08:00:04.278Z,27.90
2018-12-20T08:02:39.225Z,27.53
2018-12-20T08:05:13.538Z,29.00
2018-12-20T08:07:48.167Z,28.27
2018-12-20T08:10:22.488Z,26.53
2018-12-20T08:12:56.897Z,24.80
2018-12-20T08:15:31.449Z,26.03
2018-12-20T08:18:05.409Z,26.37
2018-12-20T08:20:39.808Z,26.07
2018-12-20T08:23:13.925Z,26.80
2018-12-20T08:25:48.296Z,27.83
2018-12-20T08:28:23.133Z,29.27
2018-12-20T08:30:57.223Z,26.10
2018-12-20T08:33:31.970Z,26.63
2018-12-20T08:36:06.566Z,25.73
2018-12-20T08:38:40.713Z,27.30
2018-12-20T08:41:14.934Z,26.03
2018-12-20T08:43:49.019Z,26.67
2018-12-20T08:46:23.397Z,27.13
2018-12-20T08:48:57.306Z,27.03
2018-12-20T08:51:31.676Z,26.97
2018-12-20T08:54:05.847Z,28.57
2018-12-20T08:56:40.673Z,28.50
2018-12-20T08:59:14.583Z,27.63
2018-12-20T09:01:48.803Z,28.57
2018-12-20T09:04:22.911Z,27.07
2018-12-20T09:06:56.969Z,28.03
2018-12-20T09:09:31.228Z,28.63
2018-12-20T09:12:05.592Z,28.70
2018-12-20T09:14:40.283Z,28.73
2018-12-20T09:17:14.241Z,29.53
2018-12-20T09:19:48.579Z,31.57
2018-12-20T09:22:26.982Z,32.40
2018-12-20T09:25:01.798Z,33.83
2018-12-20T09:27:36.107Z,31.80
2018-12-20T09:30:10.381Z,31.60
2018-12-20T09:32:44.859Z,29.83
2018-12-20T09:35:19.624Z,31.40
2018-12-20T09:37:53.669Z,32.93
2018-12-20T09:40:27.958Z,30.03
2018-12-20T09:43:02.184Z,30.13
2018-12-20T09:45:36.428Z,30.83
2018-12-20T09:48:10.324Z,31.50
2018-12-20T09:50:44.556Z,33.13
2018-12-20T09:53:18.780Z,33.23
2018-12-20T09:55:53.073Z,33.03
2018-12-20T09:58:27.320Z,32.23
2018-12-20T10:01:01.475Z,30.60
2018-12-20T10:03:35.421Z,29.30
2018-12-20T10:06:09.500Z,29.60
2018-12-20T10:08:44.561Z,30.13
2018-12-20T10:11:18.978Z,32.73
2018-12-20T10:13:58.111Z,31.17
2018-12-20T10:16:32.421Z,30.07
2018-12-20T10:19:06.808Z,29.37
2018-12-20T10:21:40.784Z,29.50
2018-12-20T10:24:15.381Z,32.57
2018-12-20T10:26:49.868Z,31.43
2018-12-20T10:29:24.326Z,27.57
2018-12-20T10:31:58.543Z,27.53
2018-12-20T10:34:32.487Z,29.20
2018-12-20T10:37:07.092Z,29.53
2018-12-20T10:39:41.181Z,28.43
2018-12-20T10:42:15.827Z,29.77
2018-12-20T10:44:50.532Z,30.80
2018-12-20T10:47:29.304Z,31.07
2018-12-20T10:50:02.488Z,30.50
2018-12-20T10:52:36.688Z,28.87
2018-12-20T10:55:10.880Z,28.70
2018-12-20T10:57:44.807Z,30.03
2018-12-20T11:00:19.983Z,33.33
2018-12-20T11:02:59.499Z,28.37
2018-12-20T11:05:38.852Z,28.70
2018-12-20T11:08:17.710Z,27.07
2018-12-20T11:10:56.135Z,30.97
2018-12-20T11:13:30.647Z,30.73
2018-12-20T11:16:05.206Z,32.23
2018-12-20T11:18:39.429Z,28.07
2018-12-20T11:21:13.850Z,28.33
2018-12-20T11:23:48.225Z,28.93
2018-12-20T11:26:22.506Z,27.80
2018-12-20T11:28:56.563Z,28.13
2018-12-20T11:31:31.095Z,28.17
2018-12-20T11:34:05.722Z,27.97
2018-12-20T11:36:40.382Z,27.63
2018-12-20T11:39:14.599Z,28.60
2018-12-20T11:41:49.014Z,29.47
2018-12-20T11:44:23.315Z,28.30
2018-12-20T11:46:57.748Z,29.23
2018-12-20T11:49:32.148Z,28.20
2018-12-20T11:52:06.526Z,29.50
2018-12-20T11:54:41.354Z,30.53
2018-12-20T11:57:20.302Z,30.10
2018-12-20T11:59:54.468Z,30.20
2018-12-20T12:02:29.658Z,30.40
2018-12-20T12:05:04.406Z,31.63
2018-12-20T12:07:38.745Z,30.40
2018-12-20T12:10:13.559Z,32.67
2018-12-20T12:12:47.899Z,30.20
2018-12-20T12:15:22.201Z,30.90
2018-12-20T12:17:56.301Z,27.20
2018-12-20T12:20:31.141Z,29.87
2018-12-20T12:23:05.788Z,29.27
2018-12-20T12:25:40.359Z,30.57
2018-12-20T12:28:15.034Z,29.50
2018-12-20T12:30:49.105Z,29.33
2018-12-20T12:33:23.489Z,32.00
2018-12-20T12:35:57.679Z,32.23
2018-12-20T12:38:31.997Z,28.53
2018-12-20T12:41:06.395Z,29.30
2018-12-20T12:43:40.623Z,29.50
2018-12-20T12:46:15.376Z,33.37
2018-12-20T12:48:49.377Z,30.90
2018-12-20T12:51:23.701Z,32.90
2018-12-20T12:53:58.494Z,31.37
2018-12-20T12:56:32.874Z,34.90
2018-12-20T12:59:07.381Z,32.17
2018-12-20T13:01:41.654Z,31.60
2018-12-20T13:04:16.374Z,31.17
2018-12-20T13:06:50.228Z,31.77
2018-12-20T13:09:25.035Z,31.23
2018-12-20T13:11:59.258Z,33.43
2018-12-20T13:14:33.498Z,32.40
2018-12-20T13:17:07.722Z,32.60
2018-12-20T13:19:41.838Z,32.00
2018-12-20T13:22:16.599Z,31.83
2018-12-20T13:24:51.381Z,32.63
2018-12-20T13:27:25.383Z,30.10
2018-12-20T13:29:59.757Z,30.57
2018-12-20T13:32:33.935Z,31.63
2018-12-20T13:35:07.992Z,31.67
2018-12-20T13:37:42.042Z,32.50
2018-12-20T13:40:16.937Z,29.03
2018-12-20T13:42:51.657Z,30.57
2018-12-20T13:45:26.043Z,35.13
2018-12-20T13:48:00.509Z,33.13
2018-12-20T13:50:34.692Z,28.07
2018-12-20T13:53:08.635Z,28.40
2018-12-20T13:55:42.956Z,29.93
2018-12-20T13:58:17.099Z,31.73
2018-12-20T14:00:51.135Z,35.73
2018-12-20T14:03:25.328Z,29.03
2018-12-20T14:05:59.518Z,31.70
2018-12-20T14:08:33.620Z,31.33
2018-12-20T14:11:08.039Z,29.63
2018-12-20T14:13:42.244Z,31.23
2018-12-20T14:16:16.672Z,34.97
2018-12-20T14:18:55.507Z,33.03
2018-12-20T14:21:30.651Z,31.37
2018-12-20T14:24:04.983Z,31.23
2018-12-20T14:26:39.242Z,31.33
2018-12-20T14:29:13.473Z,31.70
2018-12-20T14:31:48.030Z,31.43
2018-12-20T14:34:22.159Z,28.07
2018-12-20T14:36:56.054Z,31.17
2018-12-20T14:39:30.444Z,32.13
2018-12-20T14:42:05.120Z,30.73
2018-12-20T14:44:39.178Z,28.77
2018-12-20T14:47:14.002Z,31.40
2018-12-20T14:49:48.252Z,30.50
2018-12-20T14:52:22.795Z,31.33
2018-12-20T14:54:57.474Z,33.13
2018-12-20T14:57:32.196Z,32.83
2018-12-20T15:00:09.189Z,33.27
2018-12-20T15:02:43.640Z,32.17
2018-12-20T15:05:18.480Z,34.67
2018-12-20T15:07:53.593Z,36.43
2018-12-20T15:10:27.573Z,45.43
2018-12-20T15:13:01.995Z,32.33
2018-12-20T15:15:36.345Z,33.73
2018-12-20T15:18:11.398Z,34.93
2018-12-20T15:20:45.874Z,33.93
2018-12-20T15:23:20.055Z,31.47
2018-12-20T15:25:54.318Z,33.40
2018-12-20T15:28:28.764Z,30.73
2018-12-20T15:31:03.386Z,49.73
2018-12-20T15:33:37.665Z,33.20
2018-12-20T15:36:11.789Z,32.60
2018-12-20T15:38:46.028Z,30.33
2018-12-20T15:41:20.279Z,30.80
2018-12-20T15:43:54.762Z,31.47
2018-12-20T15:46:29.087Z,32.33
2018-12-20T15:49:04.798Z,33.43
2018-12-20T15:51:39.531Z,31.23
2018-12-20T15:54:13.750Z,32.43
2018-12-20T15:56:47.978Z,33.33
2018-12-20T15:59:22.061Z,31.77
2018-12-20T16:01:56.491Z,33.57
2018-12-20T16:04:30.559Z,34.60
2018-12-20T16:07:04.930Z,33.83
2018-12-20T16:09:39.051Z,32.00
2018-12-20T16:12:13.476Z,33.03
2018-12-20T16:14:48.014Z,37.17
2018-12-20T16:17:23.012Z,32.87
2018-12-20T16:19:57.170Z,31.93
2018-12-20T16:22:31.659Z,35.20
2018-12-20T16:25:06.753Z,35.17
2018-12-20T16:27:41.016Z,34.53
2018-12-20T16:30:15.451Z,35.43
2018-12-20T16:32:49.588Z,32.77
2018-12-20T16:35:23.994Z,35.07
2018-12-20T16:37:58.485Z,40.47
2018-12-20T16:40:32.940Z,40.17
2018-12-20T16:43:06.941Z,37.17
2018-12-20T16:45:41.335Z,33.13
2018-12-20T16:48:19.659Z,33.37
2018-12-20T16:50:54.816Z,33.97
2018-12-20T16:53:28.994Z,31.93
2018-12-20T16:56:02.927Z,33.50
2018-12-20T16:58:37.405Z,35.20
2018-12-20T17:01:12.390Z,35.90
2018-12-20T17:03:46.882Z,37.50
2018-12-20T17:06:21.202Z,35.13
2018-12-20T17:08:55.339Z,36.33
2018-12-20T17:11:29.614Z,35.13
2018-12-20T17:14:03.712Z,34.40
2018-12-20T17:16:38.099Z,35.00
2018-12-20T17:19:12.724Z,37.90
2018-12-20T17:21:47.350Z,36.80
2018-12-20T17:29:31.504Z,38.07
2018-12-20T17:32:06.436Z,36.20
2018-12-20T17:34:40.573Z,36.63
2018-12-20T17:37:14.905Z,38.07
2018-12-20T17:39:49.201Z,35.90
2018-12-20T17:42:23.616Z,36.50
2018-12-20T17:44:58.321Z,36.60
2018-12-20T17:47:33.284Z,37.47
2018-12-20T17:50:09.133Z,36.23
2018-12-20T17:52:43.304Z,38.53
2018-12-20T17:55:17.889Z,37.43
2018-12-20T17:57:52.581Z,36.03
2018-12-20T18:00:27.158Z,36.63
2018-12-20T18:03:01.984Z,40.13
2018-12-20T18:05:37.308Z,37.13
2018-12-20T18:08:14.037Z,36.77
2018-12-20T18:10:50.607Z,37.93
2018-12-20T18:13:32.841Z,37.07
2018-12-20T18:16:08.975Z,37.63
2018-12-20T18:18:44.370Z,39.60
2018-12-20T18:21:18.906Z,37.57
2018-12-20T18:23:54.080Z,38.63
2018-12-20T18:26:28.343Z,36.57
2018-12-20T18:31:35.384Z,43.93
2018-12-20T18:49:30.033Z,41.43
2018-12-20T18:52:05.303Z,39.20
2018-12-20T18:54:39.931Z,39.17
2018-12-20T18:57:14.314Z,39.53
2018-12-20T18:59:48.536Z,39.17
2018-12-20T19:02:22.618Z,47.57
2018-12-20T19:04:56.935Z,39.13
2018-12-20T19:07:31.169Z,41.43
2018-12-20T19:10:05.862Z,57.20
2018-12-20T19:12:40.350Z,46.80
2018-12-20T19:15:14.450Z,41.97
2018-12-20T19:17:49.491Z,42.63
2018-12-20T19:20:23.809Z,44.13
2018-12-20T19:22:58.897Z,43.70
2018-12-20T19:25:35.397Z,44.40
2018-12-20T19:28:10.155Z,48.43
2018-12-20T19:30:47.010Z,41.33
2018-12-20T19:33:21.814Z,39.03
2018-12-20T19:35:55.847Z,41.43
2018-12-20T19:38:30.058Z,38.90
2018-12-20T19:41:05.293Z,39.53
2018-12-20T19:43:39.725Z,38.93
2018-12-20T19:46:13.975Z,40.57
2018-12-20T19:48:48.788Z,38.77
2018-12-20T19:51:23.086Z,40.13
2018-12-20T19:53:57.846Z,39.63
2018-12-20T19:56:32.451Z,44.43
2018-12-20T19:59:06.714Z,42.40
2018-12-20T20:01:40.678Z,41.57
2018-12-20T20:04:15.101Z,39.50
2018-12-20T20:06:49.016Z,40.30
2018-12-20T20:09:23.387Z,39.90
2018-12-20T20:11:57.644Z,41.17
2018-12-20T20:14:31.943Z,43.77
2018-12-20T20:17:06.763Z,42.77
2018-12-20T20:19:41.867Z,41.53
2018-12-20T20:22:16.111Z,40.47
2018-12-20T20:24:50.571Z,45.20
2018-12-20T20:27:24.720Z,42.20
2018-12-20T20:29:59.708Z,40.97
2018-12-20T20:32:33.832Z,46.53
2018-12-20T20:35:08.847Z,42.63
2018-12-20T20:37:43.417Z,41.47
2018-12-20T20:40:17.871Z,40.10
2018-12-20T20:42:52.102Z,41.00
2018-12-20T20:45:26.450Z,42.33
2018-12-20T20:48:00.411Z,41.47
2018-12-20T20:50:34.842Z,44.03
2018-12-20T21:03:20.511Z,41.27
2018-12-20T21:05:55.041Z,43.27
2018-12-20T21:08:29.403Z,42.47
2018-12-20T21:11:04.231Z,43.33
2018-12-20T21:13:38.290Z,44.20
2018-12-20T21:16:12.797Z,43.10
2018-12-20T21:18:48.720Z,57.90
2018-12-20T21:21:22.741Z,47.07
2018-12-20T21:23:58.146Z,46.40
2018-12-20T21:26:32.163Z,45.53
2018-12-20T21:29:06.862Z,46.30
2018-12-20T21:31:41.258Z,47.47
2018-12-20T21:34:16.317Z,46.50
2018-12-20T21:36:50.291Z,47.67
2018-12-20T21:39:24.545Z,46.73
2018-12-20T21:41:59.272Z,48.37
2018-12-20T21:44:34.374Z,46.73
2018-12-20T21:47:08.980Z,47.43
2018-12-20T21:49:43.790Z,48.17
2018-12-20T21:52:18.079Z,47.03
2018-12-20T21:54:52.157Z,47.20
2018-12-20T21:57:26.403Z,48.80
2018-12-20T22:00:01.345Z,48.73
2018-12-20T22:28:03.325Z,50.20
2018-12-20T22:30:37.487Z,47.53
2018-12-20T22:33:11.795Z,47.30
2018-12-20T22:35:46.590Z,52.07
2018-12-20T22:38:20.817Z,49.27
2018-12-20T22:40:55.045Z,49.80
2018-12-20T22:43:29.354Z,50.40
2018-12-20T22:46:03.566Z,47.70
2018-12-20T22:48:38.115Z,50.00
2018-12-20T22:51:12.109Z,64.60
2018-12-20T22:53:46.846Z,60.20
2018-12-20T22:56:21.986Z,48.90
2018-12-20T22:58:56.298Z,52.57
2018-12-20T23:01:30.817Z,46.33
2018-12-20T23:04:05.443Z,50.73
2018-12-20T23:06:40.067Z,50.80
2018-12-20T23:09:14.254Z,48.83
2018-12-20T23:11:48.599Z,53.00
2018-12-20T23:14:22.885Z,50.90
2018-12-20T23:16:57.304Z,51.40
2018-12-20T23:19:31.325Z,51.37
2018-12-20T23:22:05.947Z,53.00
2018-12-20T23:24:40.442Z,50.17
2018-12-20T23:27:15.113Z,50.27
2018-12-20T23:29:49.748Z,52.53
2018-12-20T23:32:23.933Z,50.23
2018-12-20T23:34:58.400Z,50.07
2018-12-20T23:37:32.673Z,55.67
2018-12-20T23:40:07.174Z,51.33
2018-12-20T23:42:41.493Z,50.93
2018-12-20T23:45:15.753Z,51.70
2018-12-20T23:47:49.834Z,49.90
2018-12-20T23:50:24.113Z,53.47
2018-12-20T23:52:57.958Z,54.67
2018-12-20T23:55:32.403Z,53.30
2018-12-20T23:58:06.693Z,55.73
